sensor_id;sensor_type;location;lat;lon;timestamp;temperature;humidity
11454;DHT22;5783;55.174;61.310;2022-07-12T00:01:40;26.10;65.70
11454;DHT22;5783;55.174;61.310;2022-07-12T00:04:09;26.10;65.90
11454;DHT22;5783;55.174;61.310;2022-07-12T00:06:38;26.10;65.80
11454;DHT22;5783;55.174;61.310;2022-07-12T00:09:07;26.10;65.90
11454;DHT22;5783;55.174;61.310;2022-07-12T00:11:37;26.10;65.90
11454;DHT22;5783;55.174;61.310;2022-07-12T00:14:08;26.10;65.90
11454;DHT22;5783;55.174;61.310;2022-07-12T00:16:37;26.10;66.60
11454;DHT22;5783;55.174;61.310;2022-07-12T00:19:06;26.10;65.90
11454;DHT22;5783;55.174;61.310;2022-07-12T00:21:36;26.10;66.10
11454;DHT22;5783;55.174;61.310;2022-07-12T00:24:05;26.10;66.00
11454;DHT22;5783;55.174;61.310;2022-07-12T00:26:34;26.10;66.00
11454;DHT22;5783;55.174;61.310;2022-07-12T00:29:03;26.10;66.00
11454;DHT22;5783;55.174;61.310;2022-07-12T00:31:33;26.20;66.20
11454;DHT22;5783;55.174;61.310;2022-07-12T00:34:02;26.20;66.20
11454;DHT22;5783;55.174;61.310;2022-07-12T00:36:31;26.10;66.10
11454;DHT22;5783;55.174;61.310;2022-07-12T00:39:00;26.20;66.20
11454;DHT22;5783;55.174;61.310;2022-07-12T00:41:29;26.10;65.70
11454;DHT22;5783;55.174;61.310;2022-07-12T00:43:59;26.10;65.70
11454;DHT22;5783;55.174;61.310;2022-07-12T00:46:29;26.10;66.10
11454;DHT22;5783;55.174;61.310;2022-07-12T00:49:00;26.10;66.00
11454;DHT22;5783;55.174;61.310;2022-07-12T00:51:29;26.10;66.20
11454;DHT22;5783;55.174;61.310;2022-07-12T00:53:59;26.10;66.20
11454;DHT22;5783;55.174;61.310;2022-07-12T00:56:29;26.10;66.40
11454;DHT22;5783;55.174;61.310;2022-07-12T00:58:58;26.00;66.30
11454;DHT22;5783;55.174;61.310;2022-07-12T01:01:27;26.00;66.40
11454;DHT22;5783;55.174;61.310;2022-07-12T01:03:57;26.00;66.50
11454;DHT22;5783;55.174;61.310;2022-07-12T01:06:27;26.00;66.50
11454;DHT22;5783;55.174;61.310;2022-07-12T01:08:58;26.00;66.40
11454;DHT22;5783;55.174;61.310;2022-07-12T01:11:28;26.00;66.30
11454;DHT22;5783;55.174;61.310;2022-07-12T01:13:57;26.00;66.30
11454;DHT22;5783;55.174;61.310;2022-07-12T01:16:27;26.00;66.30
11454;DHT22;5783;55.174;61.310;2022-07-12T01:18:56;26.00;66.20
11454;DHT22;5783;55.174;61.310;2022-07-12T01:21:28;26.00;66.30
11454;DHT22;5783;55.174;61.310;2022-07-12T01:24:00;26.00;66.30
11454;DHT22;5783;55.174;61.310;2022-07-12T01:26:29;26.00;66.20
11454;DHT22;5783;55.174;61.310;2022-07-12T01:28:59;26.00;66.30
11454;DHT22;5783;55.174;61.310;2022-07-12T01:31:29;26.00;66.30
11454;DHT22;5783;55.174;61.310;2022-07-12T01:33:58;26.00;66.20
11454;DHT22;5783;55.174;61.310;2022-07-12T01:36:28;26.00;66.20
11454;DHT22;5783;55.174;61.310;2022-07-12T01:38:58;26.00;66.20
11454;DHT22;5783;55.174;61.310;2022-07-12T01:41:27;26.00;66.20
11454;DHT22;5783;55.174;61.310;2022-07-12T01:43:57;26.00;66.10
11454;DHT22;5783;55.174;61.310;2022-07-12T01:46:27;26.10;66.10
11454;DHT22;5783;55.174;61.310;2022-07-12T01:48:57;26.00;66.00
11454;DHT22;5783;55.174;61.310;2022-07-12T01:51:26;26.10;66.10
11454;DHT22;5783;55.174;61.310;2022-07-12T01:53:55;26.10;66.20
11454;DHT22;5783;55.174;61.310;2022-07-12T01:56:24;26.10;66.10
11454;DHT22;5783;55.174;61.310;2022-07-12T01:58:53;26.10;66.10
11454;DHT22;5783;55.174;61.310;2022-07-12T02:01:23;26.10;66.30
11454;DHT22;5783;55.174;61.310;2022-07-12T02:03:54;26.10;66.10
11454;DHT22;5783;55.174;61.310;2022-07-12T02:06:23;26.10;66.10
11454;DHT22;5783;55.174;61.310;2022-07-12T02:08:53;26.10;66.10
11454;DHT22;5783;55.174;61.310;2022-07-12T02:11:22;26.10;66.10
11454;DHT22;5783;55.174;61.310;2022-07-12T02:13:52;26.10;66.10
11454;DHT22;5783;55.174;61.310;2022-07-12T02:16:23;26.10;66.10
11454;DHT22;5783;55.174;61.310;2022-07-12T02:18:52;26.10;66.10
11454;DHT22;5783;55.174;61.310;2022-07-12T02:21:21;26.10;66.10
11454;DHT22;5783;55.174;61.310;2022-07-12T02:23:50;26.10;66.10
11454;DHT22;5783;55.174;61.310;2022-07-12T02:26:19;26.10;66.00
11454;DHT22;5783;55.174;61.310;2022-07-12T02:28:49;26.00;65.90
11454;DHT22;5783;55.174;61.310;2022-07-12T02:31:18;26.10;66.10
11454;DHT22;5783;55.174;61.310;2022-07-12T02:33:47;26.10;66.10
11454;DHT22;5783;55.174;61.310;2022-07-12T02:36:16;26.10;66.10
11454;DHT22;5783;55.174;61.310;2022-07-12T02:38:45;26.10;66.10
11454;DHT22;5783;55.174;61.310;2022-07-12T02:41:14;26.00;65.90
11454;DHT22;5783;55.174;61.310;2022-07-12T02:43:44;26.00;66.00
11454;DHT22;5783;55.174;61.310;2022-07-12T02:46:13;26.10;66.00
11454;DHT22;5783;55.174;61.310;2022-07-12T02:48:42;26.10;65.90
11454;DHT22;5783;55.174;61.310;2022-07-12T02:51:12;26.10;65.90
11454;DHT22;5783;55.174;61.310;2022-07-12T02:53:41;26.10;65.80
11454;DHT22;5783;55.174;61.310;2022-07-12T02:56:10;26.10;65.80
11454;DHT22;5783;55.174;61.310;2022-07-12T02:58:42;26.10;65.80
11454;DHT22;5783;55.174;61.310;2022-07-12T03:01:11;26.10;65.80
11454;DHT22;5783;55.174;61.310;2022-07-12T03:03:40;26.10;65.80
11454;DHT22;5783;55.174;61.310;2022-07-12T03:06:10;26.10;65.70
11454;DHT22;5783;55.174;61.310;2022-07-12T03:08:39;26.10;65.60
11454;DHT22;5783;55.174;61.310;2022-07-12T03:11:08;26.20;65.50
11454;DHT22;5783;55.174;61.310;2022-07-12T03:13:37;26.20;65.40
11454;DHT22;5783;55.174;61.310;2022-07-12T03:16:07;26.10;65.30
11454;DHT22;5783;55.174;61.310;2022-07-12T03:18:36;26.10;65.10
11454;DHT22;5783;55.174;61.310;2022-07-12T03:21:07;26.10;65.10
11454;DHT22;5783;55.174;61.310;2022-07-12T03:23:36;26.20;65.10
11454;DHT22;5783;55.174;61.310;2022-07-12T03:26:07;26.20;65.10
11454;DHT22;5783;55.174;61.310;2022-07-12T03:28:36;26.10;65.00
11454;DHT22;5783;55.174;61.310;2022-07-12T03:31:05;26.10;65.00
11454;DHT22;5783;55.174;61.310;2022-07-12T03:33:34;26.10;65.10
11454;DHT22;5783;55.174;61.310;2022-07-12T03:36:04;26.10;65.20
11454;DHT22;5783;55.174;61.310;2022-07-12T03:38:35;26.10;65.20
11454;DHT22;5783;55.174;61.310;2022-07-12T03:41:06;26.10;65.20
11454;DHT22;5783;55.174;61.310;2022-07-12T03:43:35;26.10;65.30
11454;DHT22;5783;55.174;61.310;2022-07-12T03:46:04;26.10;65.30
11454;DHT22;5783;55.174;61.310;2022-07-12T03:48:33;26.10;65.40
11454;DHT22;5783;55.174;61.310;2022-07-12T03:51:03;26.10;65.30
11454;DHT22;5783;55.174;61.310;2022-07-12T03:53:32;26.10;65.30
11454;DHT22;5783;55.174;61.310;2022-07-12T03:56:01;26.10;65.10
11454;DHT22;5783;55.174;61.310;2022-07-12T03:58:30;26.10;65.00
11454;DHT22;5783;55.174;61.310;2022-07-12T04:00:59;26.10;64.90
11454;DHT22;5783;55.174;61.310;2022-07-12T04:03:29;26.20;65.00
11454;DHT22;5783;55.174;61.310;2022-07-12T04:05:58;26.20;64.90
11454;DHT22;5783;55.174;61.310;2022-07-12T04:08:27;26.20;64.90
11454;DHT22;5783;55.174;61.310;2022-07-12T04:10:56;26.20;64.80
11454;DHT22;5783;55.174;61.310;2022-07-12T04:13:27;26.20;64.90
11454;DHT22;5783;55.174;61.310;2022-07-12T04:15:56;26.20;64.70
11454;DHT22;5783;55.174;61.310;2022-07-12T04:18:25;26.30;64.80
11454;DHT22;5783;55.174;61.310;2022-07-12T04:20:54;26.20;64.70
11454;DHT22;5783;55.174;61.310;2022-07-12T04:23:24;26.30;64.70
11454;DHT22;5783;55.174;61.310;2022-07-12T04:25:53;26.30;64.60
11454;DHT22;5783;55.174;61.310;2022-07-12T04:28:22;26.40;64.70
11454;DHT22;5783;55.174;61.310;2022-07-12T04:30:51;26.30;64.50
11454;DHT22;5783;55.174;61.310;2022-07-12T04:33:20;26.40;64.50
11454;DHT22;5783;55.174;61.310;2022-07-12T04:35:49;26.40;64.50
11454;DHT22;5783;55.174;61.310;2022-07-12T04:38:18;26.40;64.40
11454;DHT22;5783;55.174;61.310;2022-07-12T04:40:49;26.40;64.70
11454;DHT22;5783;55.174;61.310;2022-07-12T04:43:18;26.40;64.60
11454;DHT22;5783;55.174;61.310;2022-07-12T04:45:49;26.40;64.70
11454;DHT22;5783;55.174;61.310;2022-07-12T04:48:18;26.40;65.00
11454;DHT22;5783;55.174;61.310;2022-07-12T04:50:48;26.40;64.80
11454;DHT22;5783;55.174;61.310;2022-07-12T04:53:17;26.40;64.80
11454;DHT22;5783;55.174;61.310;2022-07-12T04:55:46;26.40;64.80
11454;DHT22;5783;55.174;61.310;2022-07-12T04:58:15;26.40;64.90
11454;DHT22;5783;55.174;61.310;2022-07-12T05:00:44;26.40;64.70
11454;DHT22;5783;55.174;61.310;2022-07-12T05:03:13;26.40;65.00
11454;DHT22;5783;55.174;61.310;2022-07-12T05:05:43;26.40;64.80
11454;DHT22;5783;55.174;61.310;2022-07-12T05:08:12;26.40;65.10
11454;DHT22;5783;55.174;61.310;2022-07-12T05:10:41;26.40;64.90
11454;DHT22;5783;55.174;61.310;2022-07-12T05:13:11;26.40;64.70
11454;DHT22;5783;55.174;61.310;2022-07-12T05:15:40;26.40;63.50
11454;DHT22;5783;55.174;61.310;2022-07-12T05:18:09;26.40;63.10
11454;DHT22;5783;55.174;61.310;2022-07-12T05:20:39;26.40;62.10
11454;DHT22;5783;55.174;61.310;2022-07-12T05:23:09;26.40;61.60
11454;DHT22;5783;55.174;61.310;2022-07-12T05:25:38;26.40;60.80
11454;DHT22;5783;55.174;61.310;2022-07-12T05:28:07;26.40;59.60
11454;DHT22;5783;55.174;61.310;2022-07-12T05:30:36;26.40;59.00
11454;DHT22;5783;55.174;61.310;2022-07-12T05:33:05;26.40;59.00
11454;DHT22;5783;55.174;61.310;2022-07-12T05:35:34;26.40;59.00
11454;DHT22;5783;55.174;61.310;2022-07-12T05:38:04;26.40;59.60
11454;DHT22;5783;55.174;61.310;2022-07-12T05:40:33;26.40;59.30
11454;DHT22;5783;55.174;61.310;2022-07-12T05:43:02;26.40;60.40
11454;DHT22;5783;55.174;61.310;2022-07-12T05:45:31;26.40;59.60
11454;DHT22;5783;55.174;61.310;2022-07-12T05:48:00;26.40;59.00
11454;DHT22;5783;55.174;61.310;2022-07-12T05:50:30;26.40;59.40
11454;DHT22;5783;55.174;61.310;2022-07-12T05:52:59;26.40;58.80
11454;DHT22;5783;55.174;61.310;2022-07-12T05:58:39;26.40;58.10
11454;DHT22;5783;55.174;61.310;2022-07-12T06:01:08;26.40;58.40
11454;DHT22;5783;55.174;61.310;2022-07-12T06:03:57;26.40;58.40
11454;DHT22;5783;55.174;61.310;2022-07-12T06:06:26;26.40;57.50
11454;DHT22;5783;55.174;61.310;2022-07-12T06:08:56;26.30;56.80
11454;DHT22;5783;55.174;61.310;2022-07-12T06:11:25;26.30;56.70
11454;DHT22;5783;55.174;61.310;2022-07-12T06:13:54;26.40;56.40
11454;DHT22;5783;55.174;61.310;2022-07-12T06:16:23;26.30;56.00
11454;DHT22;5783;55.174;61.310;2022-07-12T06:18:54;26.40;56.50
11454;DHT22;5783;55.174;61.310;2022-07-12T06:21:23;26.30;57.00
11454;DHT22;5783;55.174;61.310;2022-07-12T06:23:52;26.40;58.50
11454;DHT22;5783;55.174;61.310;2022-07-12T06:26:21;26.40;58.40
11454;DHT22;5783;55.174;61.310;2022-07-12T06:28:50;26.40;56.90
11454;DHT22;5783;55.174;61.310;2022-07-12T06:31:19;26.40;57.00
11454;DHT22;5783;55.174;61.310;2022-07-12T06:33:50;26.50;56.30
11454;DHT22;5783;55.174;61.310;2022-07-12T06:36:19;26.50;56.50
11454;DHT22;5783;55.174;61.310;2022-07-12T06:38:49;26.50;56.30
11454;DHT22;5783;55.174;61.310;2022-07-12T06:41:18;26.50;56.90
11454;DHT22;5783;55.174;61.310;2022-07-12T06:43:47;26.50;57.00
11454;DHT22;5783;55.174;61.310;2022-07-12T06:46:16;26.50;56.70
11454;DHT22;5783;55.174;61.310;2022-07-12T06:48:45;26.50;56.90
11454;DHT22;5783;55.174;61.310;2022-07-12T06:51:14;26.50;56.90
11454;DHT22;5783;55.174;61.310;2022-07-12T06:53:43;26.60;55.80
11454;DHT22;5783;55.174;61.310;2022-07-12T06:56:13;26.50;55.50
11454;DHT22;5783;55.174;61.310;2022-07-12T06:58:42;26.50;54.80
11454;DHT22;5783;55.174;61.310;2022-07-12T07:01:11;26.50;54.90
11454;DHT22;5783;55.174;61.310;2022-07-12T07:03:40;26.50;54.70
11454;DHT22;5783;55.174;61.310;2022-07-12T07:06:09;26.50;54.60
11454;DHT22;5783;55.174;61.310;2022-07-12T07:08:40;26.50;53.80
11454;DHT22;5783;55.174;61.310;2022-07-12T07:11:11;26.50;54.20
11454;DHT22;5783;55.174;61.310;2022-07-12T07:13:40;26.50;54.40
11454;DHT22;5783;55.174;61.310;2022-07-12T07:16:09;26.50;54.60
11454;DHT22;5783;55.174;61.310;2022-07-12T07:18:38;26.50;54.80
11454;DHT22;5783;55.174;61.310;2022-07-12T07:21:08;26.50;55.10
11454;DHT22;5783;55.174;61.310;2022-07-12T07:23:37;26.50;55.00
11454;DHT22;5783;55.174;61.310;2022-07-12T07:26:06;26.50;54.80
11454;DHT22;5783;55.174;61.310;2022-07-12T07:28:35;26.50;54.80
11454;DHT22;5783;55.174;61.310;2022-07-12T07:31:06;26.50;54.70
11454;DHT22;5783;55.174;61.310;2022-07-12T07:33:35;26.50;54.60
11454;DHT22;5783;55.174;61.310;2022-07-12T07:36:04;26.50;54.90
11454;DHT22;5783;55.174;61.310;2022-07-12T07:38:33;26.40;55.00
11454;DHT22;5783;55.174;61.310;2022-07-12T07:41:03;26.40;55.30
11454;DHT22;5783;55.174;61.310;2022-07-12T07:43:32;26.40;55.20
11454;DHT22;5783;55.174;61.310;2022-07-12T07:46:01;26.40;55.10
11454;DHT22;5783;55.174;61.310;2022-07-12T07:48:30;26.40;55.10
11454;DHT22;5783;55.174;61.310;2022-07-12T07:51:01;26.40;55.20
11454;DHT22;5783;55.174;61.310;2022-07-12T07:53:30;26.40;55.30
11454;DHT22;5783;55.174;61.310;2022-07-12T07:56:00;26.40;55.20
11454;DHT22;5783;55.174;61.310;2022-07-12T07:58:29;26.40;55.40
11454;DHT22;5783;55.174;61.310;2022-07-12T08:00:58;26.40;55.10
11454;DHT22;5783;55.174;61.310;2022-07-12T08:03:28;26.40;54.80
11454;DHT22;5783;55.174;61.310;2022-07-12T08:05:57;26.40;54.50
11454;DHT22;5783;55.174;61.310;2022-07-12T08:08:28;26.40;54.50
11454;DHT22;5783;55.174;61.310;2022-07-12T08:10:57;26.40;54.50
11454;DHT22;5783;55.174;61.310;2022-07-12T08:13:26;26.40;54.50
11454;DHT22;5783;55.174;61.310;2022-07-12T08:15:55;26.40;55.00
11454;DHT22;5783;55.174;61.310;2022-07-12T08:18:24;26.40;55.30
11454;DHT22;5783;55.174;61.310;2022-07-12T08:20:54;26.40;55.70
11454;DHT22;5783;55.174;61.310;2022-07-12T08:23:23;26.50;55.40
11454;DHT22;5783;55.174;61.310;2022-07-12T08:25:54;26.50;55.10
11454;DHT22;5783;55.174;61.310;2022-07-12T08:28:23;26.50;54.80
11454;DHT22;5783;55.174;61.310;2022-07-12T08:30:53;26.50;55.10
11454;DHT22;5783;55.174;61.310;2022-07-12T08:33:22;26.50;54.60
11454;DHT22;5783;55.174;61.310;2022-07-12T08:35:51;26.50;54.50
11454;DHT22;5783;55.174;61.310;2022-07-12T08:38:20;26.50;54.50
11454;DHT22;5783;55.174;61.310;2022-07-12T08:40:49;26.50;54.60
11454;DHT22;5783;55.174;61.310;2022-07-12T08:43:22;26.60;54.70
11454;DHT22;5783;55.174;61.310;2022-07-12T08:45:52;26.60;54.60
11454;DHT22;5783;55.174;61.310;2022-07-12T08:48:21;26.60;54.70
11454;DHT22;5783;55.174;61.310;2022-07-12T08:51:11;26.60;54.20
11454;DHT22;5783;55.174;61.310;2022-07-12T08:53:39;26.60;54.00
11454;DHT22;5783;55.174;61.310;2022-07-12T08:59:19;26.70;54.80
11454;DHT22;5783;55.174;61.310;2022-07-12T09:01:50;26.70;55.00
11454;DHT22;5783;55.174;61.310;2022-07-12T09:07:29;26.70;55.10
11454;DHT22;5783;55.174;61.310;2022-07-12T09:12:34;26.70;54.90
11454;DHT22;5783;55.174;61.310;2022-07-12T09:15:24;26.80;54.20
11454;DHT22;5783;55.174;61.310;2022-07-12T09:18:13;26.80;54.30
11454;DHT22;5783;55.174;61.310;2022-07-12T09:23:34;26.70;54.00
11454;DHT22;5783;55.174;61.310;2022-07-12T09:26:07;26.70;54.20
11454;DHT22;5783;55.174;61.310;2022-07-12T09:28:35;26.70;54.50
11454;DHT22;5783;55.174;61.310;2022-07-12T09:31:04;26.70;54.60
11454;DHT22;5783;55.174;61.310;2022-07-12T09:33:33;26.70;54.50
11454;DHT22;5783;55.174;61.310;2022-07-12T09:36:24;26.70;54.30
11454;DHT22;5783;55.174;61.310;2022-07-12T09:38:54;26.70;54.30
11454;DHT22;5783;55.174;61.310;2022-07-12T09:41:25;26.60;54.20
11454;DHT22;5783;55.174;61.310;2022-07-12T09:43:54;26.60;54.10
11454;DHT22;5783;55.174;61.310;2022-07-12T09:46:25;26.60;53.90
11454;DHT22;5783;55.174;61.310;2022-07-12T09:48:55;26.50;53.70
11454;DHT22;5783;55.174;61.310;2022-07-12T09:51:26;26.50;53.80
11454;DHT22;5783;55.174;61.310;2022-07-12T09:53:58;26.50;53.80
11454;DHT22;5783;55.174;61.310;2022-07-12T09:56:48;26.50;53.70
11454;DHT22;5783;55.174;61.310;2022-07-12T09:59:23;26.50;54.00
11454;DHT22;5783;55.174;61.310;2022-07-12T10:01:53;26.50;54.40
11454;DHT22;5783;55.174;61.310;2022-07-12T10:04:29;26.50;54.90
11454;DHT22;5783;55.174;61.310;2022-07-12T10:06:58;26.50;54.50
11454;DHT22;5783;55.174;61.310;2022-07-12T10:09:27;26.50;54.80
11454;DHT22;5783;55.174;61.310;2022-07-12T10:11:56;26.60;54.20
11454;DHT22;5783;55.174;61.310;2022-07-12T10:14:27;26.50;54.20
11454;DHT22;5783;55.174;61.310;2022-07-12T10:16:57;26.60;54.30
11454;DHT22;5783;55.174;61.310;2022-07-12T10:19:46;26.60;54.50
11454;DHT22;5783;55.174;61.310;2022-07-12T10:22:35;26.60;54.50
11454;DHT22;5783;55.174;61.310;2022-07-12T10:25:04;26.60;54.40
11454;DHT22;5783;55.174;61.310;2022-07-12T10:27:37;26.70;54.40
11454;DHT22;5783;55.174;61.310;2022-07-12T10:30:26;26.70;54.60
11454;DHT22;5783;55.174;61.310;2022-07-12T10:32:58;26.70;54.60
11454;DHT22;5783;55.174;61.310;2022-07-12T10:35:30;26.70;54.40
11454;DHT22;5783;55.174;61.310;2022-07-12T10:38:19;26.70;54.30
11454;DHT22;5783;55.174;61.310;2022-07-12T10:40:48;26.70;53.70
11454;DHT22;5783;55.174;61.310;2022-07-12T10:43:19;26.70;53.80
11454;DHT22;5783;55.174;61.310;2022-07-12T10:45:51;26.70;53.50
11454;DHT22;5783;55.174;61.310;2022-07-12T10:48:21;26.70;53.60
11454;DHT22;5783;55.174;61.310;2022-07-12T10:50:51;26.70;53.40
11454;DHT22;5783;55.174;61.310;2022-07-12T10:53:40;26.80;53.90
11454;DHT22;5783;55.174;61.310;2022-07-12T10:56:31;26.80;54.20
11454;DHT22;5783;55.174;61.310;2022-07-12T10:59:02;26.80;53.80
11454;DHT22;5783;55.174;61.310;2022-07-12T11:01:32;26.90;53.60
11454;DHT22;5783;55.174;61.310;2022-07-12T11:04:21;26.90;53.30
11454;DHT22;5783;55.174;61.310;2022-07-12T11:06:51;26.90;53.00
11454;DHT22;5783;55.174;61.310;2022-07-12T11:09:24;26.90;52.60
11454;DHT22;5783;55.174;61.310;2022-07-12T11:11:54;26.90;52.60
11454;DHT22;5783;55.174;61.310;2022-07-12T11:14:26;26.90;53.20
11454;DHT22;5783;55.174;61.310;2022-07-12T11:17:14;27.00;53.10
11454;DHT22;5783;55.174;61.310;2022-07-12T11:19:43;27.00;53.80
11454;DHT22;5783;55.174;61.310;2022-07-12T11:22:16;27.10;53.30
11454;DHT22;5783;55.174;61.310;2022-07-12T11:24:42;27.10;53.10
11454;DHT22;5783;55.174;61.310;2022-07-12T11:27:13;27.10;52.70
11454;DHT22;5783;55.174;61.310;2022-07-12T11:29:55;27.10;52.50
11454;DHT22;5783;55.174;61.310;2022-07-12T11:35:04;27.10;52.20
11454;DHT22;5783;55.174;61.310;2022-07-12T11:37:35;27.10;51.70
11454;DHT22;5783;55.174;61.310;2022-07-12T11:40:05;27.00;51.30
11454;DHT22;5783;55.174;61.310;2022-07-12T11:42:37;27.00;51.20
11454;DHT22;5783;55.174;61.310;2022-07-12T11:45:05;27.00;51.30
11454;DHT22;5783;55.174;61.310;2022-07-12T11:47:34;27.00;51.20
11454;DHT22;5783;55.174;61.310;2022-07-12T11:50:03;26.90;51.20
11454;DHT22;5783;55.174;61.310;2022-07-12T11:52:34;26.90;51.20
11454;DHT22;5783;55.174;61.310;2022-07-12T11:55:06;26.90;51.80
11454;DHT22;5783;55.174;61.310;2022-07-12T11:57:33;26.90;51.90
11454;DHT22;5783;55.174;61.310;2022-07-12T12:00:22;26.90;52.10
11454;DHT22;5783;55.174;61.310;2022-07-12T12:02:51;26.90;52.10
11454;DHT22;5783;55.174;61.310;2022-07-12T12:05:21;26.90;51.70
11454;DHT22;5783;55.174;61.310;2022-07-12T12:07:50;26.90;51.70
11454;DHT22;5783;55.174;61.310;2022-07-12T12:10:19;26.90;51.60
11454;DHT22;5783;55.174;61.310;2022-07-12T12:15:59;26.90;51.60
11454;DHT22;5783;55.174;61.310;2022-07-12T12:18:49;26.80;51.60
11454;DHT22;5783;55.174;61.310;2022-07-12T12:21:19;26.80;51.40
11454;DHT22;5783;55.174;61.310;2022-07-12T12:23:53;26.80;51.20
11454;DHT22;5783;55.174;61.310;2022-07-12T12:26:23;26.80;51.40
11454;DHT22;5783;55.174;61.310;2022-07-12T12:28:54;26.80;51.70
11454;DHT22;5783;55.174;61.310;2022-07-12T12:31:23;26.80;51.40
11454;DHT22;5783;55.174;61.310;2022-07-12T12:33:54;26.80;51.50
11454;DHT22;5783;55.174;61.310;2022-07-12T12:36:44;26.80;51.50
11454;DHT22;5783;55.174;61.310;2022-07-12T12:39:28;26.80;50.80
11454;DHT22;5783;55.174;61.310;2022-07-12T12:41:46;26.80;50.70
11454;DHT22;5783;55.174;61.310;2022-07-12T12:44:15;26.80;50.70
11454;DHT22;5783;55.174;61.310;2022-07-12T12:47:06;26.80;50.70
11454;DHT22;5783;55.174;61.310;2022-07-12T12:49:54;26.80;51.00
11454;DHT22;5783;55.174;61.310;2022-07-12T12:52:24;26.80;51.20
11454;DHT22;5783;55.174;61.310;2022-07-12T12:54:54;26.80;51.10
11454;DHT22;5783;55.174;61.310;2022-07-12T12:57:23;26.80;51.60
11454;DHT22;5783;55.174;61.310;2022-07-12T12:59:53;26.80;52.00
11454;DHT22;5783;55.174;61.310;2022-07-12T13:02:22;26.80;51.20
11454;DHT22;5783;55.174;61.310;2022-07-12T13:04:53;26.80;50.90
11454;DHT22;5783;55.174;61.310;2022-07-12T13:07:22;26.80;50.70
11454;DHT22;5783;55.174;61.310;2022-07-12T13:09:51;26.80;51.10
11454;DHT22;5783;55.174;61.310;2022-07-12T13:12:20;26.90;51.90
11454;DHT22;5783;55.174;61.310;2022-07-12T13:14:52;26.90;51.40
11454;DHT22;5783;55.174;61.310;2022-07-12T13:17:21;26.90;51.40
11454;DHT22;5783;55.174;61.310;2022-07-12T13:19:49;26.90;51.50
11454;DHT22;5783;55.174;61.310;2022-07-12T13:22:17;26.90;50.70
11454;DHT22;5783;55.174;61.310;2022-07-12T13:24:46;26.90;50.10
11454;DHT22;5783;55.174;61.310;2022-07-12T13:27:15;26.90;50.70
11454;DHT22;5783;55.174;61.310;2022-07-12T13:29:44;26.90;49.80
11454;DHT22;5783;55.174;61.310;2022-07-12T13:32:13;26.90;49.80
11454;DHT22;5783;55.174;61.310;2022-07-12T13:34:42;26.90;49.60
11454;DHT22;5783;55.174;61.310;2022-07-12T13:37:12;26.90;49.50
11454;DHT22;5783;55.174;61.310;2022-07-12T13:39:41;26.90;49.20
11454;DHT22;5783;55.174;61.310;2022-07-12T13:42:29;26.90;50.00
11454;DHT22;5783;55.174;61.310;2022-07-12T13:44:58;26.90;50.00
11454;DHT22;5783;55.174;61.310;2022-07-12T13:47:27;26.90;50.80
11454;DHT22;5783;55.174;61.310;2022-07-12T13:49:57;26.80;50.20
11454;DHT22;5783;55.174;61.310;2022-07-12T13:52:26;26.80;50.10
11454;DHT22;5783;55.174;61.310;2022-07-12T13:54:55;26.80;49.70
11454;DHT22;5783;55.174;61.310;2022-07-12T13:57:24;26.80;49.70
11454;DHT22;5783;55.174;61.310;2022-07-12T13:59:53;26.80;49.90
11454;DHT22;5783;55.174;61.310;2022-07-12T14:02:23;26.80;50.30
11454;DHT22;5783;55.174;61.310;2022-07-12T14:04:53;26.70;50.30
11454;DHT22;5783;55.174;61.310;2022-07-12T14:07:22;26.80;50.40
11454;DHT22;5783;55.174;61.310;2022-07-12T14:09:51;26.80;50.00
11454;DHT22;5783;55.174;61.310;2022-07-12T14:12:20;26.70;49.50
11454;DHT22;5783;55.174;61.310;2022-07-12T14:14:49;26.80;49.90
11454;DHT22;5783;55.174;61.310;2022-07-12T14:17:22;26.70;49.50
11454;DHT22;5783;55.174;61.310;2022-07-12T14:19:51;26.70;49.60
11454;DHT22;5783;55.174;61.310;2022-07-12T14:22:22;26.70;49.40
11454;DHT22;5783;55.174;61.310;2022-07-12T14:24:53;26.70;49.10
11454;DHT22;5783;55.174;61.310;2022-07-12T14:27:22;26.70;48.80
11454;DHT22;5783;55.174;61.310;2022-07-12T14:29:51;26.70;48.50
11454;DHT22;5783;55.174;61.310;2022-07-12T14:32:21;26.70;49.10
11454;DHT22;5783;55.174;61.310;2022-07-12T14:34:49;26.70;48.80
11454;DHT22;5783;55.174;61.310;2022-07-12T14:37:19;26.70;48.90
11454;DHT22;5783;55.174;61.310;2022-07-12T14:39:47;26.70;49.10
11454;DHT22;5783;55.174;61.310;2022-07-12T14:42:15;26.70;49.40
11454;DHT22;5783;55.174;61.310;2022-07-12T14:44:44;26.70;49.50
11454;DHT22;5783;55.174;61.310;2022-07-12T14:47:13;26.80;49.90
11454;DHT22;5783;55.174;61.310;2022-07-12T14:49:42;26.80;50.20
11454;DHT22;5783;55.174;61.310;2022-07-12T14:52:11;26.80;50.20
11454;DHT22;5783;55.174;61.310;2022-07-12T14:54:40;26.80;50.30
11454;DHT22;5783;55.174;61.310;2022-07-12T14:57:11;26.80;50.40
11454;DHT22;5783;55.174;61.310;2022-07-12T14:59:40;26.90;50.40
11454;DHT22;5783;55.174;61.310;2022-07-12T15:02:09;26.90;50.50
11454;DHT22;5783;55.174;61.310;2022-07-12T15:04:38;26.90;50.50
11454;DHT22;5783;55.174;61.310;2022-07-12T15:07:06;26.90;50.50
11454;DHT22;5783;55.174;61.310;2022-07-12T15:09:36;27.00;50.50
11454;DHT22;5783;55.174;61.310;2022-07-12T15:12:05;27.00;50.90
11454;DHT22;5783;55.174;61.310;2022-07-12T15:14:34;27.00;50.80
11454;DHT22;5783;55.174;61.310;2022-07-12T15:17:02;27.00;51.10
11454;DHT22;5783;55.174;61.310;2022-07-12T15:19:31;27.10;51.20
11454;DHT22;5783;55.174;61.310;2022-07-12T15:22:00;27.10;51.40
11454;DHT22;5783;55.174;61.310;2022-07-12T15:24:29;27.10;51.50
11454;DHT22;5783;55.174;61.310;2022-07-12T15:26:58;27.10;51.60
11454;DHT22;5783;55.174;61.310;2022-07-12T15:29:29;27.00;51.70
11454;DHT22;5783;55.174;61.310;2022-07-12T15:31:58;27.00;51.80
11454;DHT22;5783;55.174;61.310;2022-07-12T15:34:28;27.00;52.00
11454;DHT22;5783;55.174;61.310;2022-07-12T15:36:56;27.00;52.10
11454;DHT22;5783;55.174;61.310;2022-07-12T15:39:24;27.00;52.20
11454;DHT22;5783;55.174;61.310;2022-07-12T15:41:53;26.90;52.20
11454;DHT22;5783;55.174;61.310;2022-07-12T15:44:22;26.90;52.30
11454;DHT22;5783;55.174;61.310;2022-07-12T15:46:50;26.90;52.40
11454;DHT22;5783;55.174;61.310;2022-07-12T15:49:19;26.90;52.50
11454;DHT22;5783;55.174;61.310;2022-07-12T15:51:48;26.90;52.60
11454;DHT22;5783;55.174;61.310;2022-07-12T15:54:36;26.90;52.50
11454;DHT22;5783;55.174;61.310;2022-07-12T15:57:06;26.90;53.00
11454;DHT22;5783;55.174;61.310;2022-07-12T15:59:35;26.90;53.10
11454;DHT22;5783;55.174;61.310;2022-07-12T16:02:04;26.90;53.10
11454;DHT22;5783;55.174;61.310;2022-07-12T16:04:33;26.90;53.20
11454;DHT22;5783;55.174;61.310;2022-07-12T16:07:02;26.90;53.20
11454;DHT22;5783;55.174;61.310;2022-07-12T16:09:31;26.90;53.20
11454;DHT22;5783;55.174;61.310;2022-07-12T16:11:59;26.90;53.40